Cielo Di Vaiano — D5AQ2 — position and weather

sailwx.info

Track history (hours):
 
Tides and Currents Weather Stations Pressure Air Temp Water Temp Dewpoint Dewpoint Depression Visibility Wind Speed Wind Dir Waves Ship Positions

Cielo Di Vaiano

Last reported at 2017-Apr-04 08:13 UTC. Time now 2017-Apr-27 16:39 UTC.
Position S 26°54' E 153°41'.
Warning: this ship's position is 23 days out of date.

Length 183 m; draft 9.3 m.

Type: Cargo ship. MMSI: 636015421.

Date/timePositionNaut miles runAvg speedWind from/ knotsBaromVisibWave heightAir tempDewpointWater temp
2017-Apr-04 08:13S 26°54' E 153°41'313.8
2017-Apr-04 08:00S 26°57' E 153°41'713.8
2017-Apr-04 07:30S 27°04' E 153°42'2613.7
2017-Apr-04 05:35S 27°30' E 153°43'513.6
2017-Apr-04 05:12S 27°36' E 153°44'313.4
2017-Apr-04 05:00S 27°38' E 153°44'713.5
2017-Apr-04 04:30S 27°45' E 153°44'713.3
2017-Apr-04 04:00S 27°52' E 153°45'713.3
2017-Apr-04 03:30S 27°58' E 153°45'713.7
2017-Apr-04 02:58S 28°06' E 153°45'27012.3
2017-Apr-03 05:01S 32°30' E 152°39'414.3
2017-Apr-03 04:43S 32°33' E 152°35'314.3
2017-Apr-03 04:30S 32°35' E 152°33'714.3
2017-Apr-03 04:00S 32°40' E 152°27'714.2
2017-Apr-03 03:31S 32°46' E 152°22'713.7
2017-Apr-03 03:01S 32°50' E 152°15'611.9
2017-Apr-03 02:31S 32°53' E 152°09'713.8
2017-Apr-03 02:01S 32°57' E 152°03'611.7
2017-Apr-03 01:30S 32°59' E 151°56'6 7.2
2017-Apr-03 00:39S 33°03' E 151°50'1 4.8
2017-Apr-03 00:30S 33°04' E 151°50'3 5.0
2017-Apr-02 23:53S 33°07' E 151°49'4 7.3
2017-Apr-02 23:23S 33°10' E 151°48'6 0.6
2017-Apr-02 13:23S 33°10' E 151°55'1 2.9
2017-Apr-02 12:59S 33°09' E 151°55'3 5.3
2017-Apr-02 12:30S 33°06' E 151°55'2 4.8
2017-Apr-02 12:00S 33°04' E 151°54'3 4.8
2017-Apr-02 11:21S 33°01' E 151°52'2 5.1
2017-Apr-02 10:59S 32°59' E 151°51'3 5.9
2017-Apr-02 10:30S 32°57' E 151°50'3 5.4
2017-Apr-02 10:00S 32°55' E 151°47'1 1.7
2017-Apr-02 09:30S 32°55' E 151°46'0 0.0
2017-Apr-02 08:59S 32°55' E 151°46'0 0.0
2017-Apr-02 08:29S 32°55' E 151°46'0 0.0
2017-Apr-02 07:59S 32°55' E 151°46'0 0.0
2017-Apr-02 07:29S 32°55' E 151°46'0 0.0
2017-Apr-02 06:59S 32°55' E 151°46'0 0.0
2017-Apr-02 06:29S 32°55' E 151°46'0 0.0
2017-Apr-02 05:59S 32°55' E 151°46'0 0.0
2017-Apr-02 05:29S 32°55' E 151°46'0 0.0
2017-Apr-02 04:59S 32°55' E 151°46'0 0.0
2017-Apr-02 04:29S 32°55' E 151°46'0 0.0
2017-Apr-02 03:59S 32°55' E 151°46'0 0.0
2017-Apr-02 03:29S 32°55' E 151°46'0 0.0
2017-Apr-02 02:56S 32°55' E 151°46'0 0.0
2017-Apr-02 02:29S 32°55' E 151°46'0 0.0
2017-Apr-02 01:59S 32°55' E 151°46'0 0.0
2017-Apr-02 01:29S 32°55' E 151°46'0 0.0
2017-Apr-02 00:56S 32°55' E 151°46'0 0.0
2017-Apr-02 00:29S 32°55' E 151°46'0 0.0
2017-Apr-01 23:59S 32°55' E 151°46'0 0.0
2017-Apr-01 23:29S 32°55' E 151°46'0 0.0
2017-Apr-01 22:59S 32°55' E 151°46'0 0.0
2017-Apr-01 22:29S 32°55' E 151°46'0 0.0
2017-Apr-01 21:59S 32°55' E 151°46'0 0.0
2017-Apr-01 21:26S 32°55' E 151°46'0 0.0
2017-Apr-01 20:59S 32°55' E 151°46'0 0.0
2017-Apr-01 20:29S 32°55' E 151°46'0 0.0
2017-Apr-01 19:59S 32°55' E 151°46'0 0.0
2017-Apr-01 19:29S 32°55' E 151°46'0 0.0
2017-Apr-01 18:59S 32°55' E 151°46'0 0.0
2017-Apr-01 18:29S 32°55' E 151°46'0 0.0
2017-Apr-01 17:29S 32°55' E 151°46'0 0.0
2017-Apr-01 16:59S 32°55' E 151°46'0 0.0
2017-Apr-01 16:29S 32°55' E 151°46'0 0.0
2017-Apr-01 15:56S 32°55' E 151°46'0 0.0
2017-Apr-01 15:23S 32°55' E 151°46'0 0.0
2017-Apr-01 14:59S 32°55' E 151°46'0 0.0
2017-Apr-01 13:59S 32°55' E 151°46'0 0.0
2017-Apr-01 13:29S 32°55' E 151°46'0 0.0
2017-Apr-01 12:59S 32°55' E 151°46'0 0.0
2017-Apr-01 12:29S 32°55' E 151°46'0 0.0
2017-Apr-01 11:59S 32°55' E 151°46'0 0.0
2017-Apr-01 11:29S 32°55' E 151°46'0 0.0
2017-Apr-01 10:59S 32°55' E 151°46'0 0.0
2017-Apr-01 10:29S 32°55' E 151°46'0 0.0
2017-Apr-01 09:59S 32°55' E 151°46'0 0.0
2017-Apr-01 09:29S 32°55' E 151°46'0 0.0
2017-Apr-01 08:59S 32°55' E 151°46'0 0.0
2017-Apr-01 08:29S 32°55' E 151°46'0 0.0
2017-Apr-01 07:59S 32°55' E 151°46'0 0.0
2017-Apr-01 07:29S 32°55' E 151°46'0 0.0
2017-Apr-01 06:59S 32°55' E 151°46'0 0.0
2017-Apr-01 06:26S 32°55' E 151°46'0 0.0
2017-Apr-01 05:59S 32°55' E 151°46'0 0.0
2017-Apr-01 05:29S 32°55' E 151°46'0 0.0
2017-Apr-01 04:59S 32°55' E 151°46'0 0.0
2017-Apr-01 04:29S 32°55' E 151°46'0 0.0
2017-Apr-01 03:59S 32°55' E 151°46'0 0.0
2017-Apr-01 03:29S 32°55' E 151°46'0 0.0
2017-Apr-01 02:59S 32°55' E 151°46'0 0.0
2017-Apr-01 02:29S 32°55' E 151°46'0 0.0
2017-Apr-01 01:56S 32°55' E 151°46'0 0.0
2017-Apr-01 01:29S 32°55' E 151°46'0 0.0
2017-Apr-01 00:59S 32°55' E 151°46'0 0.0
2017-Apr-01 00:29S 32°55' E 151°46'0 0.0
2017-Mar-31 23:59S 32°55' E 151°46'0 0.0
2017-Mar-31 23:29S 32°55' E 151°46'0 0.0
2017-Mar-31 22:56S 32°55' E 151°46'0 0.0
2017-Mar-31 22:29S 32°55' E 151°46'0 0.0
2017-Mar-31 21:59S 32°55' E 151°46'0 0.0
2017-Mar-31 21:29S 32°55' E 151°46'0 0.0
2017-Mar-31 20:59S 32°55' E 151°46'0 0.0
2017-Mar-31 20:29S 32°55' E 151°46'0 0.0
2017-Mar-31 19:59S 32°55' E 151°46'0 0.0
2017-Mar-31 19:29S 32°55' E 151°46'0 0.0
2017-Mar-31 18:59S 32°55' E 151°46'0 0.0
2017-Mar-31 18:29S 32°55' E 151°46'0 0.0
2017-Mar-31 17:59S 32°55' E 151°46'0 0.0
2017-Mar-31 17:29S 32°55' E 151°46'0 0.0
2017-Mar-31 16:59S 32°55' E 151°46'0 0.0
2017-Mar-31 16:29S 32°55' E 151°46'0 0.0
2017-Mar-31 15:59S 32°55' E 151°46'0 0.0
2017-Mar-31 15:29S 32°55' E 151°46'0 0.0
2017-Mar-31 14:59S 32°55' E 151°46'0 0.0
2017-Mar-31 13:59S 32°55' E 151°46'0 0.0
2017-Mar-31 13:29S 32°55' E 151°46'0 0.0
2017-Mar-31 12:59S 32°55' E 151°46'0 0.0
2017-Mar-31 12:29S 32°55' E 151°46'0 0.0
2017-Mar-31 11:59S 32°55' E 151°46'0 0.0
2017-Mar-31 11:29S 32°55' E 151°46'0 0.0
2017-Mar-31 10:59S 32°55' E 151°46'0 0.0
2017-Mar-31 10:29S 32°55' E 151°46'0 0.0
2017-Mar-31 09:59S 32°55' E 151°46'0 0.0
2017-Mar-31 09:29S 32°55' E 151°46'0 0.0
2017-Mar-31 08:59S 32°55' E 151°46'0 0.0
2017-Mar-31 08:29S 32°55' E 151°46'0 0.0
2017-Mar-31 07:59S 32°55' E 151°46'0 0.0
2017-Mar-31 07:29S 32°55' E 151°46'0 0.0
2017-Mar-31 06:59S 32°55' E 151°46'0 0.0
2017-Mar-31 06:29S 32°55' E 151°46'0 0.0
2017-Mar-31 05:59S 32°55' E 151°46'0 0.0
2017-Mar-31 05:29S 32°55' E 151°46'0 0.0
2017-Mar-31 04:59S 32°55' E 151°46'0 0.0
2017-Mar-31 04:32S 32°55' E 151°46'0 0.0
2017-Mar-31 03:32S 32°55' E 151°46'0 0.0
2017-Mar-31 02:32S 32°55' E 151°46'0 0.0
2017-Mar-31 01:32S 32°55' E 151°46'0 0.0
2017-Mar-31 00:32S 32°55' E 151°46'0 0.0
2017-Mar-30 23:29S 32°55' E 151°46'0 0.0
2017-Mar-30 22:32S 32°55' E 151°46'0 0.0
2017-Mar-30 21:29S 32°55' E 151°46'0 0.0
2017-Mar-30 20:32S 32°55' E 151°46'0 0.0
2017-Mar-30 19:32S 32°55' E 151°46'0 0.0
2017-Mar-30 18:29S 32°55' E 151°46'0 0.0
2017-Mar-30 17:32S 32°55' E 151°46'0 0.0
2017-Mar-30 16:32S 32°55' E 151°46'0 0.0
2017-Mar-30 15:32S 32°55' E 151°46'0 0.0
2017-Mar-30 14:32S 32°55' E 151°46'0 0.0
2017-Mar-30 13:32S 32°55' E 151°46'0 0.0
2017-Mar-30 12:32S 32°55' E 151°46'0 0.0
2017-Mar-30 11:32S 32°55' E 151°46'0 0.0
2017-Mar-30 10:32S 32°55' E 151°46'0 0.0
2017-Mar-30 09:29S 32°55' E 151°46'0 0.0
2017-Mar-30 08:32S 32°55' E 151°46'0 0.0
2017-Mar-30 07:32S 32°55' E 151°46'0 0.0
2017-Mar-30 06:29S 32°55' E 151°46'0 0.0
2017-Mar-30 05:29S 32°55' E 151°46'0 0.0
2017-Mar-30 04:32S 32°55' E 151°46'0 0.0
2017-Mar-30 03:32S 32°55' E 151°46'0 0.0
2017-Mar-30 02:32S 32°55' E 151°46'0 0.0
2017-Mar-30 01:32S 32°55' E 151°46'0 0.0
2017-Mar-30 00:32S 32°55' E 151°46'0 0.0
2017-Mar-29 23:32S 32°55' E 151°46'0 0.0
2017-Mar-29 22:32S 32°55' E 151°46'0 0.0
2017-Mar-29 21:32S 32°55' E 151°46'0 0.0
2017-Mar-29 20:32S 32°55' E 151°46'0 0.0
2017-Mar-29 19:32S 32°55' E 151°46'0 0.0
2017-Mar-29 18:32S 32°55' E 151°46'0 0.0
2017-Mar-29 17:32S 32°55' E 151°46'0 0.0
2017-Mar-29 16:32S 32°55' E 151°46'0 0.0
2017-Mar-29 15:32S 32°55' E 151°46'0 0.0
2017-Mar-29 14:32S 32°55' E 151°46'0 0.0
2017-Mar-29 13:32S 32°55' E 151°46'0 0.4
2017-Mar-29 12:34S 32°55' E 151°47'8 7.5
2017-Mar-29 11:33S 32°60' E 151°53'2 2.0
2017-Mar-29 10:33S 33°02' E 151°55'1 0.8
2017-Mar-29 09:33S 33°02' E 151°56'1 0.7
2017-Mar-29 08:33S 33°02' E 151°55'1 1.0
2017-Mar-29 07:33S 33°01' E 151°55'8 8.0
2017-Mar-29 06:33S 33°04' E 152°04'10 9.7
2017-Mar-29 05:33S 33°04' E 152°16'1212.1
2017-Mar-29 04:33S 33°04' E 152°30'1211.6
2017-Mar-29 03:31S 33°04' E 152°45'1211.6
2017-Mar-29 02:30S 33°04' E 152°59'1212.4
2017-Mar-29 01:33S 33°04' E 153°13'  
Track history (hours):
 
Tides and Currents Weather Stations Pressure Air Temp Water Temp Dewpoint Dewpoint Depression Visibility Wind Speed Wind Dir Waves Ship Positions

Cielo Di Vaiano

Last reported at 2017-Apr-04 08:13 UTC. Time now 2017-Apr-27 16:39 UTC.
Position S 26°54' E 153°41'.
Warning: this ship's position is 23 days out of date.

Length 183 m; draft 9.3 m.

Type: Cargo ship. MMSI: 636015421.

Date/timePositionNaut miles runAvg speedWind from/ knotsBaromVisibWave heightAir tempDewpointWater temp
2017-Apr-04 08:13S 26°54' E 153°41'313.8
2017-Apr-04 08:00S 26°57' E 153°41'713.8
2017-Apr-04 07:30S 27°04' E 153°42'2613.7
2017-Apr-04 05:35S 27°30' E 153°43'513.6
2017-Apr-04 05:12S 27°36' E 153°44'313.4
2017-Apr-04 05:00S 27°38' E 153°44'713.5
2017-Apr-04 04:30S 27°45' E 153°44'713.3
2017-Apr-04 04:00S 27°52' E 153°45'713.3
2017-Apr-04 03:30S 27°58' E 153°45'713.7
2017-Apr-04 02:58S 28°06' E 153°45'27012.3
2017-Apr-03 05:01S 32°30' E 152°39'414.3
2017-Apr-03 04:43S 32°33' E 152°35'314.3
2017-Apr-03 04:30S 32°35' E 152°33'714.3
2017-Apr-03 04:00S 32°40' E 152°27'714.2
2017-Apr-03 03:31S 32°46' E 152°22'713.7
2017-Apr-03 03:01S 32°50' E 152°15'611.9
2017-Apr-03 02:31S 32°53' E 152°09'713.8
2017-Apr-03 02:01S 32°57' E 152°03'611.7
2017-Apr-03 01:30S 32°59' E 151°56'6 7.2
2017-Apr-03 00:39S 33°03' E 151°50'1 4.8
2017-Apr-03 00:30S 33°04' E 151°50'3 5.0
2017-Apr-02 23:53S 33°07' E 151°49'4 7.3
2017-Apr-02 23:23S 33°10' E 151°48'6 0.6
2017-Apr-02 13:23S 33°10' E 151°55'1 2.9
2017-Apr-02 12:59S 33°09' E 151°55'3 5.3
2017-Apr-02 12:30S 33°06' E 151°55'2 4.8
2017-Apr-02 12:00S 33°04' E 151°54'3 4.8
2017-Apr-02 11:21S 33°01' E 151°52'2 5.1
2017-Apr-02 10:59S 32°59' E 151°51'3 5.9
2017-Apr-02 10:30S 32°57' E 151°50'3 5.4
2017-Apr-02 10:00S 32°55' E 151°47'1 1.7
2017-Apr-02 09:30S 32°55' E 151°46'0 0.0
2017-Apr-02 08:59S 32°55' E 151°46'0 0.0
2017-Apr-02 08:29S 32°55' E 151°46'0 0.0
2017-Apr-02 07:59S 32°55' E 151°46'0 0.0
2017-Apr-02 07:29S 32°55' E 151°46'0 0.0
2017-Apr-02 06:59S 32°55' E 151°46'0 0.0
2017-Apr-02 06:29S 32°55' E 151°46'0 0.0
2017-Apr-02 05:59S 32°55' E 151°46'0 0.0
2017-Apr-02 05:29S 32°55' E 151°46'0 0.0
2017-Apr-02 04:59S 32°55' E 151°46'0 0.0
2017-Apr-02 04:29S 32°55' E 151°46'0 0.0
2017-Apr-02 03:59S 32°55' E 151°46'0 0.0
2017-Apr-02 03:29S 32°55' E 151°46'0 0.0
2017-Apr-02 02:56S 32°55' E 151°46'0 0.0
2017-Apr-02 02:29S 32°55' E 151°46'0 0.0
2017-Apr-02 01:59S 32°55' E 151°46'0 0.0
2017-Apr-02 01:29S 32°55' E 151°46'0 0.0
2017-Apr-02 00:56S 32°55' E 151°46'0 0.0
2017-Apr-02 00:29S 32°55' E 151°46'0 0.0
2017-Apr-01 23:59S 32°55' E 151°46'0 0.0
2017-Apr-01 23:29S 32°55' E 151°46'0 0.0
2017-Apr-01 22:59S 32°55' E 151°46'0 0.0
2017-Apr-01 22:29S 32°55' E 151°46'0 0.0
2017-Apr-01 21:59S 32°55' E 151°46'0 0.0
2017-Apr-01 21:26S 32°55' E 151°46'0 0.0
2017-Apr-01 20:59S 32°55' E 151°46'0 0.0
2017-Apr-01 20:29S 32°55' E 151°46'0 0.0
2017-Apr-01 19:59S 32°55' E 151°46'0 0.0
2017-Apr-01 19:29S 32°55' E 151°46'0 0.0
2017-Apr-01 18:59S 32°55' E 151°46'0 0.0
2017-Apr-01 18:29S 32°55' E 151°46'0 0.0
2017-Apr-01 17:29S 32°55' E 151°46'0 0.0
2017-Apr-01 16:59S 32°55' E 151°46'0 0.0
2017-Apr-01 16:29S 32°55' E 151°46'0 0.0
2017-Apr-01 15:56S 32°55' E 151°46'0 0.0
2017-Apr-01 15:23S 32°55' E 151°46'0 0.0
2017-Apr-01 14:59S 32°55' E 151°46'0 0.0
2017-Apr-01 13:59S 32°55' E 151°46'0 0.0
2017-Apr-01 13:29S 32°55' E 151°46'0 0.0
2017-Apr-01 12:59S 32°55' E 151°46'0 0.0
2017-Apr-01 12:29S 32°55' E 151°46'0 0.0
2017-Apr-01 11:59S 32°55' E 151°46'0 0.0
2017-Apr-01 11:29S 32°55' E 151°46'0 0.0
2017-Apr-01 10:59S 32°55' E 151°46'0 0.0
2017-Apr-01 10:29S 32°55' E 151°46'0 0.0
2017-Apr-01 09:59S 32°55' E 151°46'0 0.0
2017-Apr-01 09:29S 32°55' E 151°46'0 0.0
2017-Apr-01 08:59S 32°55' E 151°46'0 0.0
2017-Apr-01 08:29S 32°55' E 151°46'0 0.0
2017-Apr-01 07:59S 32°55' E 151°46'0 0.0
2017-Apr-01 07:29S 32°55' E 151°46'0 0.0
2017-Apr-01 06:59S 32°55' E 151°46'0 0.0
2017-Apr-01 06:26S 32°55' E 151°46'0 0.0
2017-Apr-01 05:59S 32°55' E 151°46'0 0.0
2017-Apr-01 05:29S 32°55' E 151°46'0 0.0
2017-Apr-01 04:59S 32°55' E 151°46'0 0.0
2017-Apr-01 04:29S 32°55' E 151°46'0 0.0
2017-Apr-01 03:59S 32°55' E 151°46'0 0.0
2017-Apr-01 03:29S 32°55' E 151°46'0 0.0
2017-Apr-01 02:59S 32°55' E 151°46'0 0.0
2017-Apr-01 02:29S 32°55' E 151°46'0 0.0
2017-Apr-01 01:56S 32°55' E 151°46'0 0.0
2017-Apr-01 01:29S 32°55' E 151°46'0 0.0
2017-Apr-01 00:59S 32°55' E 151°46'0 0.0
2017-Apr-01 00:29S 32°55' E 151°46'0 0.0
2017-Mar-31 23:59S 32°55' E 151°46'0 0.0
2017-Mar-31 23:29S 32°55' E 151°46'0 0.0
2017-Mar-31 22:56S 32°55' E 151°46'0 0.0
2017-Mar-31 22:29S 32°55' E 151°46'0 0.0
2017-Mar-31 21:59S 32°55' E 151°46'0 0.0
2017-Mar-31 21:29S 32°55' E 151°46'0 0.0
2017-Mar-31 20:59S 32°55' E 151°46'0 0.0
2017-Mar-31 20:29S 32°55' E 151°46'0 0.0
2017-Mar-31 19:59S 32°55' E 151°46'0 0.0
2017-Mar-31 19:29S 32°55' E 151°46'0 0.0
2017-Mar-31 18:59S 32°55' E 151°46'0 0.0
2017-Mar-31 18:29S 32°55' E 151°46'0 0.0
2017-Mar-31 17:59S 32°55' E 151°46'0 0.0
2017-Mar-31 17:29S 32°55' E 151°46'0 0.0
2017-Mar-31 16:59S 32°55' E 151°46'0 0.0
2017-Mar-31 16:29S 32°55' E 151°46'0 0.0
2017-Mar-31 15:59S 32°55' E 151°46'0 0.0
2017-Mar-31 15:29S 32°55' E 151°46'0 0.0
2017-Mar-31 14:59S 32°55' E 151°46'0 0.0
2017-Mar-31 13:59S 32°55' E 151°46'0 0.0
2017-Mar-31 13:29S 32°55' E 151°46'0 0.0
2017-Mar-31 12:59S 32°55' E 151°46'0 0.0
2017-Mar-31 12:29S 32°55' E 151°46'0 0.0
2017-Mar-31 11:59S 32°55' E 151°46'0 0.0
2017-Mar-31 11:29S 32°55' E 151°46'0 0.0
2017-Mar-31 10:59S 32°55' E 151°46'0 0.0
2017-Mar-31 10:29S 32°55' E 151°46'0 0.0
2017-Mar-31 09:59S 32°55' E 151°46'0 0.0
2017-Mar-31 09:29S 32°55' E 151°46'0 0.0
2017-Mar-31 08:59S 32°55' E 151°46'0 0.0
2017-Mar-31 08:29S 32°55' E 151°46'0 0.0
2017-Mar-31 07:59S 32°55' E 151°46'0 0.0
2017-Mar-31 07:29S 32°55' E 151°46'0 0.0
2017-Mar-31 06:59S 32°55' E 151°46'0 0.0
2017-Mar-31 06:29S 32°55' E 151°46'0 0.0
2017-Mar-31 05:59S 32°55' E 151°46'0 0.0
2017-Mar-31 05:29S 32°55' E 151°46'0 0.0
2017-Mar-31 04:59S 32°55' E 151°46'0 0.0
2017-Mar-31 04:32S 32°55' E 151°46'0 0.0
2017-Mar-31 03:32S 32°55' E 151°46'0 0.0
2017-Mar-31 02:32S 32°55' E 151°46'0 0.0
2017-Mar-31 01:32S 32°55' E 151°46'0 0.0
2017-Mar-31 00:32S 32°55' E 151°46'0 0.0
2017-Mar-30 23:29S 32°55' E 151°46'0 0.0
2017-Mar-30 22:32S 32°55' E 151°46'0 0.0
2017-Mar-30 21:29S 32°55' E 151°46'0 0.0
2017-Mar-30 20:32S 32°55' E 151°46'0 0.0
2017-Mar-30 19:32S 32°55' E 151°46'0 0.0
2017-Mar-30 18:29S 32°55' E 151°46'0 0.0
2017-Mar-30 17:32S 32°55' E 151°46'0 0.0
2017-Mar-30 16:32S 32°55' E 151°46'0 0.0
2017-Mar-30 15:32S 32°55' E 151°46'0 0.0
2017-Mar-30 14:32S 32°55' E 151°46'0 0.0
2017-Mar-30 13:32S 32°55' E 151°46'0 0.0
2017-Mar-30 12:32S 32°55' E 151°46'0 0.0
2017-Mar-30 11:32S 32°55' E 151°46'0 0.0
2017-Mar-30 10:32S 32°55' E 151°46'0 0.0
2017-Mar-30 09:29S 32°55' E 151°46'0 0.0
2017-Mar-30 08:32S 32°55' E 151°46'0 0.0
2017-Mar-30 07:32S 32°55' E 151°46'0 0.0
2017-Mar-30 06:29S 32°55' E 151°46'0 0.0
2017-Mar-30 05:29S 32°55' E 151°46'0 0.0
2017-Mar-30 04:32S 32°55' E 151°46'0 0.0
2017-Mar-30 03:32S 32°55' E 151°46'0 0.0
2017-Mar-30 02:32S 32°55' E 151°46'0 0.0
2017-Mar-30 01:32S 32°55' E 151°46'0 0.0
2017-Mar-30 00:32S 32°55' E 151°46'0 0.0
2017-Mar-29 23:32S 32°55' E 151°46'0 0.0
2017-Mar-29 22:32S 32°55' E 151°46'0 0.0
2017-Mar-29 21:32S 32°55' E 151°46'0 0.0
2017-Mar-29 20:32S 32°55' E 151°46'0 0.0
2017-Mar-29 19:32S 32°55' E 151°46'0 0.0
2017-Mar-29 18:32S 32°55' E 151°46'0 0.0
2017-Mar-29 17:32S 32°55' E 151°46'0 0.0
2017-Mar-29 16:32S 32°55' E 151°46'0 0.0
2017-Mar-29 15:32S 32°55' E 151°46'0 0.0
2017-Mar-29 14:32S 32°55' E 151°46'0 0.0
2017-Mar-29 13:32S 32°55' E 151°46'0 0.4
2017-Mar-29 12:34S 32°55' E 151°47'8 7.5
2017-Mar-29 11:33S 32°60' E 151°53'2 2.0
2017-Mar-29 10:33S 33°02' E 151°55'1 0.8
2017-Mar-29 09:33S 33°02' E 151°56'1 0.7
2017-Mar-29 08:33S 33°02' E 151°55'1 1.0
2017-Mar-29 07:33S 33°01' E 151°55'8 8.0
2017-Mar-29 06:33S 33°04' E 152°04'10 9.7
2017-Mar-29 05:33S 33°04' E 152°16'1212.1
2017-Mar-29 04:33S 33°04' E 152°30'1211.6
2017-Mar-29 03:31S 33°04' E 152°45'1211.6
2017-Mar-29 02:30S 33°04' E 152°59'1212.4
2017-Mar-29 01:33S 33°04' E 153°13'  

Dump ship's entire track history